Date,TemperatureHighF,TemperatureAvgF,TemperatureLowF,DewpointHighF,DewpointAvgF,DewpointLowF,HumidityHigh,HumidityAvg,HumidityLow,PressureMaxIn,PressureMinIn,WindSpeedMaxMPH,WindSpeedAvgMPH,GustSpeedMaxMPH,PrecipitationSumIn
2013-7-1,81,72,68,77,72,68,100,97,72,30.01,29.88,16,6,18,0.00
2013-7-2,83,76,72,75,72,67,100,90,59,30.15,30.00,20,11,22,0.00
2013-7-3,84,76,71,75,71,65,100,85,54,30.24,30.15,18,10,18,0.00
2013-7-4,88,80,72,75,71,65,100,78,48,30.25,30.11,15,10,15,0.00
2013-7-5,89,79,72,76,70,63,100,79,44,30.22,30.06,15,8,16,0.00
2013-7-6,90,79,70,76,70,64,100,78,44,30.19,30.01,14,5,14,0.00
2013-7-7,89,75,66,76,69,63,100,84,43,30.09,29.93,11,4,14,0.00
2013-7-8,83,70,64,74,65,-100,100,90,54,30.11,29.99,10,3,12,0.00
2013-7-9,84,72,65,75,70,65,100,94,57,30.12,29.99,15,4,15,0.00
2013-7-10,84,75,69,77,68,-100,100,85,59,30.03,29.81,16,8,16,0.00
2013-7-11,80,71,67,68,64,55,100,81,44,29.97,29.84,8,3,11,0.00
2013-7-12,76,69,64,72,64,53,100,84,59,30.10,29.98,11,5,11,0.00
2013-7-13,85,74,66,76,70,66,100,91,58,30.29,30.10,15,7,17,0.00
2013-7-14,89,79,72,78,72,64,100,81,48,30.35,30.23,19,6,19,0.00
2013-7-15,90,76,67,76,70,65,100,85,45,30.33,30.14,6,2,10,0.00
2013-7-16,89,77,69,77,68,60,100,78,39,30.29,30.13,8,2,9,0.12
2013-7-17,92,76,66,76,69,62,100,82,41,30.27,30.05,8,1,8,0.11
2013-7-18,93,79,70,79,72,64,100,81,40,30.13,29.96,8,2,9,0.01
2013-7-19,92,80,69,76,71,69,100,78,48,30.02,29.78,15,6,27,0.48
2013-7-20,88,77,71,75,70,-100,100,85,49,29.87,29.74,17,6,19,0.10
2013-7-21,89,75,66,72,65,55,100,77,33,29.96,29.85,7,2,7,0.56
2013-7-22,86,75,68,75,70,67,100,88,57,29.96,29.78,13,4,15,1.77
2013-7-23,84,75,70,75,71,66,100,87,56,29.78,29.60,12,6,16,0.01
2013-7-24,73,67,58,68,60,50,100,78,52,30.07,29.72,10,5,14,0.00
2013-7-25,73,60,47,62,53,47,100,82,46,30.15,30.01,8,3,9,0.00
2013-7-26,81,66,53,64,55,48,100,73,33,30.19,29.99,8,2,8,0.00
2013-7-27,81,71,60,74,64,58,99,81,51,30.11,29.91,21,10,21,0.00
2013-7-28,81,72,66,74,68,61,100,90,54,30.01,29.89,16,7,16,0.00
2013-7-29,76,65,56,66,58,51,100,80,43,30.21,30.01,11,3,13,0.00
2013-7-30,76,65,53,61,56,51,100,77,46,30.32,30.15,8,2,11,0.00
2013-7-31,80,68,54,67,60,54,100,80,47,30.28,30.02,14,4,16,0.00